Time;durP1;ratioP1;P1;durP2;ratioP2;P2;SDS_P1;SDS_P2;PMS_P1;PMS_P2;Temp;Humidity;BMP_temperature;BMP_pressure;BME280_temperature;BME280_humidity;BME280_pressure;Samples;Min_cycle;Max_cycle;Signal;HPM_P1;HPM_P2
2022/04/20 00:00:52;;;;;;;4.05;2.08;;;;;;;-143.53;100.00;58366.03;2085346;28;20232;-61
2022/04/20 00:01:54;;;;;;;5.50;1.60;;;;;;;-143.53;100.00;58366.03;2085591;28;20193;-61
2022/04/20 00:02:56;;;;;;;2.90;1.65;;;;;;;-143.53;100.00;58366.03;2085317;28;20242;-61
2022/04/20 00:03:57;;;;;;;2.97;2.08;;;;;;;-143.53;100.00;58366.03;2085583;28;20193;-61
2022/04/20 00:04:59;;;;;;;3.60;1.98;;;;;;;-143.53;100.00;58366.03;2086378;28;20236;-61
2022/04/20 00:06:00;;;;;;;3.10;1.70;;;;;;;-143.53;100.00;58366.03;2086421;28;20225;-61
2022/04/20 00:07:03;;;;;;;3.40;1.67;;;;;;;-143.53;100.00;58366.03;2087898;28;20244;-61
2022/04/20 00:08:05;;;;;;;4.07;2.00;;;;;;;-143.53;100.00;58366.03;2087400;28;20209;-61
2022/04/20 00:09:06;;;;;;;6.47;1.67;;;;;;;-143.53;100.00;58366.03;2085653;28;20200;-61
2022/04/20 00:10:08;;;;;;;3.35;1.50;;;;;;;-143.53;100.00;58366.03;2085458;28;20197;-61
2022/04/20 00:11:10;;;;;;;3.08;1.85;;;;;;;-143.53;100.00;58366.03;2084916;28;20215;-61
2022/04/20 00:12:11;;;;;;;6.30;2.10;;;;;;;-143.53;100.00;58366.03;2086772;28;20196;-61
2022/04/20 00:13:13;;;;;;;6.35;1.95;;;;;;;-143.53;100.00;58366.03;2084323;28;20213;-61
2022/04/20 00:14:19;;;;;;;8.75;2.10;;;;;;;-143.53;100.00;58366.03;2086563;28;20192;-61
2022/04/20 00:15:20;;;;;;;2.47;1.65;;;;;;;-143.53;100.00;58366.03;2086753;28;20653;-61
2022/04/20 00:16:22;;;;;;;7.47;2.50;;;;;;;-143.53;100.00;58366.03;2087453;28;20196;-61
2022/04/20 00:17:24;;;;;;;5.75;1.75;;;;;;;-143.53;100.00;58366.03;2077260;28;20228;-61
2022/04/20 00:18:25;;;;;;;5.00;2.22;;;;;;;-143.53;100.00;58366.03;2076762;28;20514;-61
2022/04/20 00:19:26;;;;;;;3.67;1.80;;;;;;;-143.53;100.00;58366.03;2087514;28;20196;-61
2022/04/20 00:20:29;;;;;;;4.30;1.80;;;;;;;-143.53;100.00;58366.03;2086072;28;20727;-61
2022/04/20 00:21:30;;;;;;;3.40;1.55;;;;;;;-143.53;100.00;58366.03;2084936;28;20200;-61
2022/04/20 00:22:32;;;;;;;5.80;2.17;;;;;;;-143.53;100.00;58366.03;2085682;28;20202;-61
2022/04/20 00:23:33;;;;;;;2.78;1.45;;;;;;;-143.53;100.00;58366.03;2087409;28;20224;-61
2022/04/20 00:24:35;;;;;;;3.85;2.33;;;;;;;-143.53;100.00;58366.03;2086258;28;20197;-61
2022/04/20 00:25:36;;;;;;;4.40;2.05;;;;;;;-143.53;100.00;58366.03;2085088;28;20228;-60
2022/04/20 00:26:38;;;;;;;7.05;2.40;;;;;;;-143.53;100.00;58366.03;2087411;28;20201;-61
2022/04/20 00:27:39;;;;;;;11.35;2.45;;;;;;;-143.53;100.00;58366.03;2084344;28;20806;-61
2022/04/20 00:28:41;;;;;;;5.18;1.60;;;;;;;-143.53;100.00;58366.03;2083401;28;20200;-61
2022/04/20 00:29:42;;;;;;;7.50;2.75;;;;;;;-143.53;100.00;58366.03;2083876;28;20209;-61
2022/04/20 00:30:44;;;;;;;8.88;2.25;;;;;;;-143.53;100.00;58366.03;2084093;28;20221;-61
2022/04/20 00:31:45;;;;;;;2.58;1.90;;;;;;;-143.53;100.00;58366.03;2086717;28;20558;-61
2022/04/20 00:32:46;;;;;;;3.30;1.80;;;;;;;-143.53;100.00;58366.03;2085556;28;20527;-61
2022/04/20 00:33:48;;;;;;;6.60;2.28;;;;;;;-143.53;100.00;58366.03;2085357;28;20208;-61
2022/04/20 00:34:49;;;;;;;3.55;1.88;;;;;;;-143.53;100.00;58366.03;2085893;28;20200;-60
2022/04/20 00:35:51;;;;;;;4.30;1.75;;;;;;;-143.53;100.00;58366.03;2085110;28;20220;-61
2022/04/20 00:36:53;;;;;;;2.92;1.73;;;;;;;-143.53;100.00;58366.03;2086356;28;20200;-61
2022/04/20 00:37:55;;;;;;;15.88;2.70;;;;;;;-143.53;100.00;58366.03;2085434;28;20222;-61
2022/04/20 00:38:56;;;;;;;6.80;2.00;;;;;;;-143.53;100.00;58366.03;2087051;28;20196;-61
2022/04/20 00:39:58;;;;;;;7.55;2.15;;;;;;;-143.53;100.00;58366.03;2085647;28;20303;-60
2022/04/20 00:40:59;;;;;;;3.97;2.20;;;;;;;-143.53;100.00;58366.03;2087373;28;20216;-61
2022/04/20 00:42:01;;;;;;;5.07;2.35;;;;;;;-143.53;100.00;58366.03;2086363;28;20549;-61
2022/04/20 00:43:02;;;;;;;3.00;1.77;;;;;;;-143.53;100.00;58366.03;2086542;28;20224;-61
2022/04/20 00:44:05;;;;;;;3.47;2.15;;;;;;;-143.53;100.00;58366.03;2084086;28;20206;-61
2022/04/20 00:45:08;;;;;;;8.48;2.35;;;;;;;-143.53;100.00;58366.03;2086066;28;20211;-61
2022/04/20 00:46:11;;;;;;;9.60;2.30;;;;;;;-143.53;100.00;58366.03;2086085;28;20723;-61
2022/04/20 00:47:15;;;;;;;6.75;2.95;;;;;;;-143.53;100.00;58366.03;2079435;28;20204;-61
2022/04/20 00:48:18;;;;;;;12.15;2.80;;;;;;;-143.53;100.00;58366.03;2079965;28;20251;-61
2022/04/20 00:49:21;;;;;;;5.15;2.97;;;;;;;-143.53;100.00;58366.03;2084564;28;20196;-60
2022/04/20 00:50:23;;;;;;;4.75;3.13;;;;;;;-143.53;100.00;58366.03;2084701;28;20205;-61
2022/04/20 00:51:24;;;;;;;4.20;2.22;;;;;;;-143.53;100.00;58366.03;2083703;28;20717;-60
2022/04/20 00:52:26;;;;;;;6.13;2.25;;;;;;;-143.53;100.00;58366.03;2084787;28;20212;-61
2022/04/20 00:53:47;;;;;;;8.30;2.70;;;;;;;-143.53;100.00;58366.03;2085708;28;20200;-61
2022/04/20 00:54:49;;;;;;;9.00;2.65;;;;;;;-143.53;100.00;58366.03;2085967;28;20205;-61
2022/04/20 00:55:50;;;;;;;5.30;2.95;;;;;;;-143.53;100.00;58366.03;2085743;28;20228;-60
2022/04/20 00:56:52;;;;;;;3.60;2.40;;;;;;;-143.53;100.00;58366.03;2086577;28;20556;-61
2022/04/20 00:57:53;;;;;;;4.85;2.40;;;;;;;-143.53;100.00;58366.03;2085154;28;20207;-60
2022/04/20 00:58:59;;;;;;;4.53;2.63;;;;;;;-143.53;100.00;58366.03;2085392;28;20200;-60
2022/04/20 01:00:01;;;;;;;6.20;2.40;;;;;;;-143.53;100.00;58366.03;2086044;28;20200;-60
2022/04/20 01:01:03;;;;;;;6.10;2.60;;;;;;;-143.53;100.00;58366.03;2086438;28;20230;-60
2022/04/20 01:02:05;;;;;;;7.13;2.55;;;;;;;-143.53;100.00;58366.03;2086107;28;20201;-60
2022/04/20 01:03:07;;;;;;;5.55;2.85;;;;;;;-143.53;100.00;58366.03;2087276;28;20287;-61
2022/04/20 01:04:09;;;;;;;7.88;2.50;;;;;;;-143.53;100.00;58366.03;2087135;28;20208;-60
2022/04/20 01:05:11;;;;;;;4.97;2.63;;;;;;;-143.53;100.00;58366.03;2086034;28;20318;-61
2022/04/20 01:06:12;;;;;;;6.07;3.00;;;;;;;-143.53;100.00;58366.03;2085831;28;20691;-60
2022/04/20 01:07:15;;;;;;;6.95;2.97;;;;;;;-143.53;100.00;58366.03;2085432;28;20564;-60
2022/04/20 01:08:17;;;;;;;5.55;3.30;;;;;;;-143.53;100.00;58366.03;2083347;28;20205;-60
2022/04/20 01:09:18;;;;;;;5.25;2.40;;;;;;;-143.53;100.00;58366.03;2083520;28;20640;-60
2022/04/20 01:10:20;;;;;;;4.88;2.55;;;;;;;-143.53;100.00;58366.03;2086035;28;20196;-61
2022/04/20 01:11:22;;;;;;;5.82;3.03;;;;;;;-143.53;100.00;58366.03;2087672;28;20223;-63
2022/04/20 01:12:24;;;;;;;7.38;2.85;;;;;;;-143.53;100.00;58366.03;2084189;28;20197;-63
2022/04/20 01:13:25;;;;;;;6.00;2.97;;;;;;;-143.53;100.00;58366.03;2084724;28;20200;-63
2022/04/20 01:14:27;;;;;;;7.78;3.30;;;;;;;-143.53;100.00;58366.03;2084238;28;20211;-63
2022/04/20 01:15:28;;;;;;;6.05;3.20;;;;;;;-143.53;100.00;58366.03;2083069;28;20197;-64
2022/04/20 01:16:30;;;;;;;6.43;3.17;;;;;;;-143.53;100.00;58366.03;2084989;28;20358;-63
2022/04/20 01:17:32;;;;;;;6.50;2.70;;;;;;;-143.53;100.00;58366.03;2086147;28;20266;-63
2022/04/20 01:18:40;;;;;;;10.15;3.22;;;;;;;-143.53;100.00;58366.03;2084577;28;20218;-63
2022/04/20 01:19:42;;;;;;;9.70;2.95;;;;;;;-143.53;100.00;58366.03;2085668;28;20644;-63
2022/04/20 01:20:43;;;;;;;8.63;3.47;;;;;;;-143.53;100.00;58366.03;2085720;28;20220;-63
2022/04/20 01:21:45;;;;;;;4.60;2.83;;;;;;;-143.53;100.00;58366.03;2087317;28;20196;-63
2022/04/20 01:22:46;;;;;;;7.25;2.80;;;;;;;-143.53;100.00;58366.03;2084747;28;20648;-63
2022/04/20 01:23:48;;;;;;;5.93;3.10;;;;;;;-143.53;100.00;58366.03;2085743;28;20414;-63
2022/04/20 01:24:49;;;;;;;5.63;3.10;;;;;;;-143.53;100.00;58366.03;2085261;28;20546;-63
2022/04/20 01:25:51;;;;;;;4.38;3.05;;;;;;;-143.53;100.00;58366.03;2087750;28;20219;-63
2022/04/20 01:26:52;;;;;;;6.38;2.70;;;;;;;-143.53;100.00;58366.03;2083866;28;20224;-63
2022/04/20 01:27:54;;;;;;;3.97;3.15;;;;;;;-143.53;100.00;58366.03;2082588;28;20200;-63
2022/04/20 01:28:58;;;;;;;7.45;2.40;;;;;;;-143.53;100.00;58366.03;2082588;28;20217;-63
2022/04/20 01:29:59;;;;;;;3.92;2.65;;;;;;;-143.53;100.00;58366.03;2082706;28;20192;-63
2022/04/20 01:31:01;;;;;;;5.38;3.35;;;;;;;-143.53;100.00;58366.03;2082295;28;20226;-63
2022/04/20 01:32:03;;;;;;;12.85;3.20;;;;;;;-143.53;100.00;58366.03;2087192;28;20204;-63
2022/04/20 01:33:04;;;;;;;5.93;3.38;;;;;;;-143.53;100.00;58366.03;2085547;28;20204;-63
2022/04/20 01:34:06;;;;;;;3.67;2.80;;;;;;;-143.53;100.00;58366.03;2086268;28;20201;-63
2022/04/20 01:35:08;;;;;;;6.90;3.33;;;;;;;-143.53;100.00;58366.03;2086811;28;20200;-63
2022/04/20 01:36:11;;;;;;;10.50;3.00;;;;;;;-143.53;100.00;58366.03;2085865;28;20220;-63
2022/04/20 01:37:12;;;;;;;4.63;3.55;;;;;;;-143.53;100.00;58366.03;2085652;28;20203;-64
2022/04/20 01:38:14;;;;;;;5.20;3.08;;;;;;;-143.53;100.00;58366.03;2085897;28;20227;-63
2022/04/20 01:39:16;;;;;;;6.53;3.22;;;;;;;-143.53;100.00;58366.03;2084814;28;20656;-63
2022/04/20 01:40:18;;;;;;;5.43;2.88;;;;;;;-143.53;100.00;58366.03;2083900;28;20200;-63
2022/04/20 01:41:19;;;;;;;5.47;2.92;;;;;;;-143.53;100.00;58366.03;2084984;28;20197;-63
2022/04/20 01:42:20;;;;;;;8.80;3.75;;;;;;;-143.53;100.00;58366.03;2085036;28;20211;-63
2022/04/20 01:43:22;;;;;;;7.78;3.80;;;;;;;-143.53;100.00;58366.03;2087067;28;20197;-63
2022/04/20 01:44:23;;;;;;;4.22;3.20;;;;;;;-143.53;100.00;58366.03;2087313;28;20190;-63
2022/04/20 01:45:25;;;;;;;7.40;4.13;;;;;;;-143.53;100.00;58366.03;2085432;28;20200;-63
2022/04/20 01:46:26;;;;;;;7.97;3.90;;;;;;;-143.53;100.00;58366.03;2086826;28;20594;-63
2022/04/20 01:47:28;;;;;;;6.30;3.75;;;;;;;-143.53;100.00;58366.03;2085274;28;20287;-63
2022/04/20 01:48:29;;;;;;;8.48;3.00;;;;;;;-143.53;100.00;58366.03;2082961;28;20621;-63
2022/04/20 01:49:31;;;;;;;6.10;3.10;;;;;;;-143.53;100.00;58366.03;2085734;28;20549;-63
2022/04/20 01:50:32;;;;;;;7.30;3.38;;;;;;;-143.53;100.00;58366.03;2085316;28;20501;-63
2022/04/20 01:51:52;;;;;;;12.88;3.65;;;;;;;-143.53;100.00;58366.03;2084284;28;20208;-63
2022/04/20 01:52:54;;;;;;;8.02;3.35;;;;;;;-143.53;100.00;58366.03;2086975;28;20253;-63
2022/04/20 01:53:55;;;;;;;5.45;3.53;;;;;;;-143.53;100.00;58366.03;2086061;28;20205;-64
2022/04/20 01:54:58;;;;;;;5.85;2.95;;;;;;;-143.53;100.00;58366.03;2083439;28;20196;-63
2022/04/20 01:56:00;;;;;;;12.45;3.00;;;;;;;-143.53;100.00;58366.03;2085266;28;20365;-63
2022/04/20 01:57:02;;;;;;;6.63;3.10;;;;;;;-143.53;100.00;58366.03;2086259;28;20194;-63
2022/04/20 01:58:03;;;;;;;5.65;2.97;;;;;;;-143.53;100.00;58366.03;2086807;28;20197;-63
2022/04/20 01:59:05;;;;;;;11.68;3.50;;;;;;;-143.53;100.00;58366.03;2087244;28;20188;-63
2022/04/20 02:00:10;;;;;;;4.45;3.60;;;;;;;-143.53;100.00;58366.03;2087461;28;20200;-63
2022/04/20 02:02:40;;;;;;;6.43;4.07;;;;;;;-143.53;100.00;58366.03;2079444;28;20537;-63
2022/04/20 02:03:42;;;;;;;7.18;4.07;;;;;;;-143.53;100.00;58366.03;2079765;28;20189;-63
2022/04/20 02:04:43;;;;;;;7.50;3.35;;;;;;;-143.53;100.00;58366.03;2079791;28;20236;-64
2022/04/20 02:05:45;;;;;;;11.15;3.60;;;;;;;-143.53;100.00;58366.03;2085385;28;20227;-64
2022/04/20 02:06:46;;;;;;;7.05;3.35;;;;;;;-143.53;100.00;58366.03;2083639;28;20192;-63
2022/04/20 02:07:48;;;;;;;4.95;3.22;;;;;;;-143.53;100.00;58366.03;2085507;28;20204;-63
2022/04/20 02:08:49;;;;;;;8.63;4.07;;;;;;;-143.53;100.00;58366.03;2083872;28;20200;-63
2022/04/20 02:09:50;;;;;;;6.20;4.07;;;;;;;-143.53;100.00;58366.03;2084051;28;20204;-63
2022/04/20 02:10:52;;;;;;;4.57;3.00;;;;;;;-143.53;100.00;58366.03;2084878;28;20225;-63
2022/04/20 02:11:53;;;;;;;7.53;4.10;;;;;;;-143.53;100.00;58366.03;2083081;28;20215;-63
2022/04/20 02:12:55;;;;;;;7.80;3.83;;;;;;;-143.53;100.00;58366.03;2086135;28;20564;-63
2022/04/20 02:13:58;;;;;;;4.45;3.35;;;;;;;-143.53;100.00;58366.03;2082746;28;20197;-63
2022/04/20 02:14:59;;;;;;;5.70;3.33;;;;;;;-143.53;100.00;58366.03;2084405;28;20201;-63
2022/04/20 02:16:01;;;;;;;6.22;3.78;;;;;;;-143.53;100.00;58366.03;2085666;28;20223;-63
2022/04/20 02:17:02;;;;;;;7.70;3.72;;;;;;;-143.53;100.00;58366.03;2083939;28;20192;-63
2022/04/20 02:18:04;;;;;;;4.47;3.05;;;;;;;-143.53;100.00;58366.03;2084385;28;20556;-63
2022/04/20 02:19:05;;;;;;;6.53;3.92;;;;;;;-143.53;100.00;58366.03;2084495;28;20207;-63
2022/04/20 02:20:08;;;;;;;7.65;3.55;;;;;;;-143.53;100.00;58366.03;2086085;28;20271;-63
2022/04/20 02:21:10;;;;;;;5.88;3.65;;;;;;;-143.53;100.00;58366.03;2084328;28;20223;-63
2022/04/20 02:22:11;;;;;;;5.45;3.53;;;;;;;-143.53;100.00;58366.03;2085743;28;20197;-64
2022/04/20 02:23:13;;;;;;;6.82;3.17;;;;;;;-143.53;100.00;58366.03;2086151;28;20687;-63
2022/04/20 02:24:15;;;;;;;7.07;3.70;;;;;;;-143.53;100.00;58366.03;2085414;28;20200;-63
2022/04/20 02:25:16;;;;;;;13.43;3.97;;;;;;;-143.53;100.00;58366.03;2083662;28;20208;-63
2022/04/20 02:26:18;;;;;;;5.70;3.30;;;;;;;-143.53;100.00;58366.03;2083682;28;20197;-63
2022/04/20 02:27:19;;;;;;;14.55;4.70;;;;;;;-143.53;100.00;58366.03;2083245;28;20196;-63
2022/04/20 02:28:21;;;;;;;8.00;3.90;;;;;;;-143.53;100.00;58366.03;2083329;28;20205;-63
2022/04/20 02:29:22;;;;;;;6.03;3.92;;;;;;;-143.53;100.00;58366.03;2082143;28;20215;-63
2022/04/20 02:30:24;;;;;;;8.10;4.13;;;;;;;-143.53;100.00;58366.03;2083693;28;20208;-63
2022/04/20 02:31:26;;;;;;;6.80;3.70;;;;;;;-143.53;100.00;58366.03;2083085;28;20204;-63
2022/04/20 02:32:27;;;;;;;6.90;3.95;;;;;;;-143.53;100.00;58366.03;2074902;28;20288;-63
2022/04/20 02:33:29;;;;;;;6.75;3.70;;;;;;;-143.53;100.00;58366.03;2076543;28;20197;-63
2022/04/20 02:34:30;;;;;;;8.70;4.03;;;;;;;-143.53;100.00;58366.03;2085394;28;20208;-63
2022/04/20 02:35:32;;;;;;;7.82;3.90;;;;;;;-143.53;100.00;58366.03;2084293;28;20220;-64
2022/04/20 02:36:34;;;;;;;5.35;3.35;;;;;;;-143.53;100.00;58366.03;2083272;28;20779;-63
2022/04/20 02:37:36;;;;;;;4.65;3.05;;;;;;;-143.53;100.00;58366.03;2083166;28;20203;-63
2022/04/20 02:38:38;;;;;;;8.65;3.35;;;;;;;-143.53;100.00;58366.03;2084797;28;20204;-63
2022/04/20 02:39:41;;;;;;;5.07;3.50;;;;;;;-143.53;100.00;58366.03;2083547;28;20211;-63
2022/04/20 02:40:43;;;;;;;4.53;2.72;;;;;;;-143.53;100.00;58366.03;2084500;28;20227;-63
2022/04/20 02:41:45;;;;;;;9.68;4.22;;;;;;;-143.53;100.00;58366.03;2075608;28;20198;-64
2022/04/20 02:42:47;;;;;;;7.55;3.50;;;;;;;-143.53;100.00;58366.03;2076379;28;20201;-63
2022/04/20 02:43:48;;;;;;;6.43;3.70;;;;;;;-143.53;100.00;58366.03;2086728;28;20203;-63
2022/04/20 02:44:50;;;;;;;6.65;3.35;;;;;;;-143.53;100.00;58366.03;2087196;28;20197;-63
2022/04/20 02:45:51;;;;;;;4.95;3.33;;;;;;;-143.53;100.00;58366.03;2082688;28;20227;-63
2022/04/20 02:46:53;;;;;;;4.75;3.45;;;;;;;-143.53;100.00;58366.03;2084945;28;20306;-63
2022/04/20 02:47:55;;;;;;;6.32;3.35;;;;;;;-143.53;100.00;58366.03;2086008;28;20267;-63
2022/04/20 02:48:56;;;;;;;16.50;3.83;;;;;;;-143.53;100.00;58366.03;2086633;28;20204;-63
2022/04/20 02:49:58;;;;;;;10.23;3.08;;;;;;;-143.53;100.00;58366.03;2083565;28;20694;-63
2022/04/20 02:50:59;;;;;;;5.22;3.60;;;;;;;-143.53;100.00;58366.03;2083562;28;20216;-63
2022/04/20 02:52:01;;;;;;;6.88;3.85;;;;;;;-143.53;100.00;58366.03;2083675;28;20227;-63
2022/04/20 02:53:03;;;;;;;6.65;3.53;;;;;;;-143.53;100.00;58366.03;2084213;28;20204;-63
2022/04/20 02:54:04;;;;;;;10.40;3.58;;;;;;;-143.53;100.00;58366.03;2078932;28;20193;-63
2022/04/20 02:55:06;;;;;;;6.30;3.90;;;;;;;-143.53;100.00;58366.03;2079589;28;20204;-63
2022/04/20 02:56:07;;;;;;;6.80;3.70;;;;;;;-143.53;100.00;58366.03;2084167;28;20220;-63
2022/04/20 02:57:09;;;;;;;7.13;3.50;;;;;;;-143.53;100.00;58366.03;2085642;28;20235;-63
2022/04/20 02:58:11;;;;;;;4.90;3.00;;;;;;;-143.53;100.00;58366.03;2086028;28;20226;-63
2022/04/20 02:59:12;;;;;;;7.18;3.70;;;;;;;-143.53;100.00;58366.03;2085568;28;20719;-63
2022/04/20 03:00:15;;;;;;;8.43;4.07;;;;;;;-143.53;100.00;58366.03;2082781;28;20200;-63
2022/04/20 03:01:16;;;;;;;7.78;3.92;;;;;;;-143.53;100.00;58366.03;2075131;28;20213;-63
2022/04/20 03:02:18;;;;;;;5.72;3.40;;;;;;;-143.53;100.00;58366.03;2076062;28;20204;-63
2022/04/20 03:03:19;;;;;;;4.85;3.53;;;;;;;-143.53;100.00;58366.03;2084782;28;20715;-63
2022/04/20 03:04:21;;;;;;;6.43;3.85;;;;;;;-143.53;100.00;58366.03;2083582;28;20559;-63
2022/04/20 03:05:22;;;;;;;8.55;3.53;;;;;;;-143.53;100.00;58366.03;2083521;28;20207;-63
2022/04/20 03:06:24;;;;;;;6.43;3.53;;;;;;;-143.53;100.00;58366.03;2084553;28;20188;-63
2022/04/20 03:07:25;;;;;;;4.88;3.28;;;;;;;-143.53;100.00;58366.03;2082119;28;20608;-63
2022/04/20 03:08:27;;;;;;;5.05;3.63;;;;;;;-143.53;100.00;58366.03;2085354;28;20209;-63
2022/04/20 03:09:28;;;;;;;5.38;3.42;;;;;;;-143.53;100.00;58366.03;2084536;28;20201;-63
2022/04/20 03:10:30;;;;;;;5.45;3.58;;;;;;;-143.53;100.00;58366.03;2083574;28;20907;-63
2022/04/20 03:11:31;;;;;;;4.35;3.72;;;;;;;-143.53;100.00;58366.03;2087383;28;20694;-63
2022/04/20 03:12:33;;;;;;;6.95;3.70;;;;;;;-143.53;100.00;58366.03;2086182;28;20574;-63
2022/04/20 03:13:34;;;;;;;6.75;3.97;;;;;;;-143.53;100.00;58366.03;2083595;28;20197;-63
2022/04/20 03:14:36;;;;;;;9.20;4.18;;;;;;;-143.53;100.00;58366.03;2077691;28;20200;-63
2022/04/20 03:15:37;;;;;;;5.45;4.07;;;;;;;-143.53;100.00;58366.03;2077613;28;20633;-64
2022/04/20 03:16:39;;;;;;;4.97;3.60;;;;;;;-143.53;100.00;58366.03;2083732;28;20762;-63
2022/04/20 03:17:41;;;;;;;5.25;3.53;;;;;;;-143.53;100.00;58366.03;2085711;28;20219;-63
2022/04/20 03:18:43;;;;;;;5.95;3.42;;;;;;;-143.53;100.00;58366.03;2083817;28;20200;-63
2022/04/20 03:19:44;;;;;;;8.18;3.65;;;;;;;-143.53;100.00;58366.03;2084184;28;20246;-64
2022/04/20 03:20:46;;;;;;;6.28;3.63;;;;;;;-143.53;100.00;58366.03;2083040;28;20254;-63
2022/04/20 03:21:47;;;;;;;7.07;3.70;;;;;;;-143.53;100.00;58366.03;2085592;28;20694;-63
2022/04/20 03:22:49;;;;;;;6.30;3.97;;;;;;;-143.53;100.00;58366.03;2085379;28;20197;-63
2022/04/20 03:23:50;;;;;;;7.20;4.47;;;;;;;-143.53;100.00;58366.03;2082988;28;20200;-63
2022/04/20 03:24:51;;;;;;;6.47;4.25;;;;;;;-143.53;100.00;58366.03;2083406;28;20197;-63
2022/04/20 03:25:53;;;;;;;7.55;3.90;;;;;;;-143.53;100.00;58366.03;2084186;28;20251;-63
2022/04/20 03:26:55;;;;;;;5.93;3.40;;;;;;;-143.53;100.00;58366.03;2086012;28;20203;-63
2022/04/20 03:27:56;;;;;;;5.22;3.75;;;;;;;-143.53;100.00;58366.03;2086093;28;20660;-64
2022/04/20 03:28:57;;;;;;;5.93;3.55;;;;;;;-143.53;100.00;58366.03;2086005;28;20200;-63
2022/04/20 03:29:59;;;;;;;6.20;4.10;;;;;;;-143.53;100.00;58366.03;2086423;28;20208;-63
2022/04/20 03:31:01;;;;;;;13.55;4.03;;;;;;;-143.53;100.00;58366.03;2084805;28;20836;-63
2022/04/20 03:32:12;;;;;;;9.85;4.45;;;;;;;-143.53;100.00;58366.03;2082820;28;20537;-63
2022/04/20 03:33:14;;;;;;;6.00;3.70;;;;;;;-143.53;100.00;58366.03;2084932;28;20197;-63
2022/04/20 03:34:16;;;;;;;4.55;3.45;;;;;;;-143.53;100.00;58366.03;2086005;28;20207;-63
2022/04/20 03:35:17;;;;;;;8.55;3.88;;;;;;;-143.53;100.00;58366.03;2084332;28;20208;-63
2022/04/20 03:36:19;;;;;;;7.15;3.83;;;;;;;-143.53;100.00;58366.03;2083976;28;20224;-63
2022/04/20 03:37:20;;;;;;;7.35;3.95;;;;;;;-143.53;100.00;58366.03;2075549;28;20560;-63
2022/04/20 03:38:22;;;;;;;4.63;3.20;;;;;;;-143.53;100.00;58366.03;2077625;28;20675;-63
2022/04/20 03:39:24;;;;;;;6.88;3.50;;;;;;;-143.53;100.00;58366.03;2084850;28;20208;-63
2022/04/20 03:40:25;;;;;;;6.00;3.15;;;;;;;-143.53;100.00;58366.03;2082680;28;20191;-63
2022/04/20 03:41:27;;;;;;;11.88;3.50;;;;;;;-143.53;100.00;58366.03;2084184;28;20205;-63
2022/04/20 03:42:29;;;;;;;10.73;4.10;;;;;;;-143.53;100.00;58366.03;2082749;28;20688;-63
2022/04/20 03:43:31;;;;;;;11.88;3.60;;;;;;;-143.53;100.00;58366.03;2083713;28;20197;-63
2022/04/20 03:44:33;;;;;;;11.07;4.20;;;;;;;-143.53;100.00;58366.03;2081993;28;20201;-63
2022/04/20 03:45:35;;;;;;;5.72;3.88;;;;;;;-143.53;100.00;58366.03;2080360;28;20229;-63
2022/04/20 03:46:36;;;;;;;8.25;3.67;;;;;;;-143.53;100.00;58366.03;2084047;28;20208;-63
2022/04/20 03:47:38;;;;;;;6.55;3.33;;;;;;;-143.53;100.00;58366.03;2085137;28;20535;-63
2022/04/20 03:48:40;;;;;;;11.55;3.65;;;;;;;-143.53;100.00;58366.03;2084447;28;20199;-63
2022/04/20 03:49:41;;;;;;;6.40;4.13;;;;;;;-143.53;100.00;58366.03;2084075;28;20227;-63
2022/04/20 03:50:43;;;;;;;7.53;3.90;;;;;;;-143.53;100.00;58366.03;2084807;28;20401;-63
2022/04/20 03:51:48;;;;;;;4.03;3.20;;;;;;;-143.53;100.00;58366.03;2085573;28;20204;-63
2022/04/20 03:52:49;;;;;;;7.45;4.13;;;;;;;-143.53;100.00;58366.03;2086279;28;20729;-63
2022/04/20 03:53:51;;;;;;;8.45;3.63;;;;;;;-143.53;100.00;58366.03;2087247;28;20192;-64
2022/04/20 03:54:52;;;;;;;8.13;4.20;;;;;;;-143.53;100.00;58366.03;2086675;28;20543;-63
2022/04/20 03:55:54;;;;;;;6.05;3.80;;;;;;;-143.53;100.00;58366.03;2079839;28;20872;-68
2022/04/20 03:57:13;;;;;;;9.48;3.97;;;;;;;-143.53;100.00;58366.03;2081328;28;20200;-67
2022/04/20 03:58:15;;;;;;;4.82;3.17;;;;;;;-143.53;100.00;58366.03;2083583;28;20201;-68
2022/04/20 03:59:16;;;;;;;7.00;3.70;;;;;;;-143.53;100.00;58366.03;2083626;28;20653;-68
2022/04/20 04:00:20;;;;;;;5.60;3.28;;;;;;;-143.53;100.00;58366.03;2084659;28;20632;-68
2022/04/20 04:01:21;;;;;;;5.43;3.47;;;;;;;-143.53;100.00;58366.03;2082768;28;20288;-68
2022/04/20 04:02:23;;;;;;;5.05;3.42;;;;;;;-143.53;100.00;58366.03;2083701;28;20734;-68
2022/04/20 04:03:25;;;;;;;5.50;3.70;;;;;;;-143.53;100.00;58366.03;2084452;28;20663;-68
2022/04/20 04:04:27;;;;;;;7.75;4.38;;;;;;;-143.53;100.00;58366.03;2084103;28;20288;-67
2022/04/20 04:05:28;;;;;;;8.75;4.00;;;;;;;-143.53;100.00;58366.03;2083900;28;20197;-68
2022/04/20 04:06:30;;;;;;;7.18;4.15;;;;;;;-143.53;100.00;58366.03;2084755;28;20193;-68
2022/04/20 04:07:31;;;;;;;5.90;3.95;;;;;;;-143.53;100.00;58366.03;2074469;28;20201;-67
2022/04/20 04:08:33;;;;;;;6.55;4.35;;;;;;;-143.53;100.00;58366.03;2076318;28;20193;-68
2022/04/20 04:09:35;;;;;;;5.53;3.75;;;;;;;-143.53;100.00;58366.03;2084413;28;20212;-68
2022/04/20 04:10:37;;;;;;;5.70;3.45;;;;;;;-143.53;100.00;58366.03;2082632;28;20231;-68
2022/04/20 04:11:39;;;;;;;6.00;3.60;;;;;;;-143.53;100.00;58366.03;2083546;28;20205;-68
2022/04/20 04:12:41;;;;;;;4.53;3.55;;;;;;;-143.53;100.00;58366.03;2084813;28;20197;-67
2022/04/20 04:13:43;;;;;;;6.90;3.63;;;;;;;-143.53;100.00;58366.03;2074991;28;20202;-68
2022/04/20 04:14:44;;;;;;;8.98;3.72;;;;;;;-143.53;100.00;58366.03;2074917;28;20205;-68
2022/04/20 04:15:46;;;;;;;7.05;3.55;;;;;;;-143.53;100.00;58366.03;2086035;28;20227;-68
2022/04/20 04:16:48;;;;;;;6.10;3.90;;;;;;;-143.53;100.00;58366.03;2082433;28;20211;-68
2022/04/20 04:17:54;;;;;;;9.65;3.80;;;;;;;-143.53;100.00;58366.03;2084808;28;20201;-68
2022/04/20 04:18:55;;;;;;;15.82;4.75;;;;;;;-143.53;100.00;58366.03;2083725;28;20185;-68
2022/04/20 04:19:57;;;;;;;9.63;3.63;;;;;;;-143.53;100.00;58366.03;2084207;28;20203;-68
2022/04/20 04:20:59;;;;;;;8.30;3.67;;;;;;;-143.53;100.00;58366.03;2083534;28;20217;-68
2022/04/20 04:22:02;;;;;;;11.15;4.30;;;;;;;-143.53;100.00;58366.03;2083233;28;20561;-68
2022/04/20 04:23:03;;;;;;;13.60;3.85;;;;;;;-143.53;100.00;58366.03;2083955;28;20197;-68
2022/04/20 04:24:06;;;;;;;17.67;3.78;;;;;;;-143.53;100.00;58366.03;2084651;28;20189;-68
2022/04/20 04:25:10;;;;;;;9.57;3.40;;;;;;;-143.53;100.00;58366.03;2084467;28;20246;-68
2022/04/20 04:26:11;;;;;;;7.53;3.97;;;;;;;-143.53;100.00;58366.03;2082396;28;20290;-68
2022/04/20 04:27:13;;;;;;;9.65;3.70;;;;;;;-143.53;100.00;58366.03;2084445;28;20196;-68
2022/04/20 04:28:18;;;;;;;10.38;4.53;;;;;;;-143.53;100.00;58366.03;2086001;28;20197;-68
2022/04/20 04:29:19;;;;;;;11.23;3.70;;;;;;;-143.53;100.00;58366.03;2083201;28;20570;-68
2022/04/20 04:30:21;;;;;;;12.32;3.60;;;;;;;-143.53;100.00;58366.03;2084763;28;20266;-68
2022/04/20 04:31:22;;;;;;;7.97;3.53;;;;;;;-143.53;100.00;58366.03;2085423;28;20196;-68
2022/04/20 04:32:24;;;;;;;6.68;3.97;;;;;;;-143.53;100.00;58366.03;2078102;28;20693;-68
2022/04/20 04:33:25;;;;;;;5.75;3.55;;;;;;;-143.53;100.00;58366.03;2079025;28;20208;-68
2022/04/20 04:34:27;;;;;;;5.78;3.58;;;;;;;-143.53;100.00;58366.03;2084458;28;20204;-68
2022/04/20 04:35:32;;;;;;;5.38;3.55;;;;;;;-143.53;100.00;58366.03;2082672;28;20199;-68
2022/04/20 04:36:34;;;;;;;7.50;3.50;;;;;;;-143.53;100.00;58366.03;2084300;28;20200;-68
2022/04/20 04:37:35;;;;;;;6.28;3.55;;;;;;;-143.53;100.00;58366.03;2084488;28;20208;-68
2022/04/20 04:38:37;;;;;;;5.30;3.25;;;;;;;-143.53;100.00;58366.03;2088299;28;20207;-68
2022/04/20 04:39:39;;;;;;;6.30;3.72;;;;;;;-143.53;100.00;58366.03;2086448;28;20203;-68
2022/04/20 04:40:41;;;;;;;5.88;3.67;;;;;;;-143.53;100.00;58366.03;2086406;28;20676;-68
2022/04/20 04:41:46;;;;;;;8.45;3.70;;;;;;;-143.53;100.00;58366.03;2083558;28;20197;-68
2022/04/20 04:42:47;;;;;;;6.60;4.05;;;;;;;-143.53;100.00;58366.03;2087579;28;20239;-68
2022/04/20 04:43:49;;;;;;;9.68;4.18;;;;;;;-143.53;100.00;58366.03;2085553;28;20204;-68